Friday, February 12, 2016
14:17 UTC
  |  Log In   |  Register Free
Airport Search:

Livermore Municipal Airport
(KLVK)

FAA data valid effective Feb 4 2016 - Mar 31 2016 (unless otherwise noted).

 
 
 
 
 
 
 
 
 
 
 
 
 
 
Current Aviation Weather for KLVK

Weather Summary


The most recent METAR observation for LVK was updated at: 12:53 UTC
METAR for KLVK is not available. Closest METAR is for KHWD
KLVK  (most recent observation was updatred at 12:13 UTC)
121353Z AUTO 00000KT 5SM BR CLR 07/05 A3020 RMK AO2 SLP225 T00670050

KHWD  (14.5 nm NE)   (most recent observation was updated at 12:13 UTC)
121354Z 00000KT 10SM CLR 10/08 A3020 RMK AO2 SLP237 T01000078

KOAK  (19.1 nm SE)   (most recent observation was updated at 12:13 UTC)
121353Z 02003KT 7SM CLR 09/08 A3021 RMK AO2 SLP229 T00940083

TAF for KLVK is not available.
KLVK
121133Z 1212/1312 00000KT 6SM BR SKC TEMPO 1214/1218 4SM HZ FM122000 33008KT P6SM FEW200 FM130400 VRB03KT P6SM SCT200

KOAK  (19.1 nm SE)   (most recent observation was updatred at 12:11 UTC)
121127Z 1212/1318 VRB03KT P6SM FEW007 TEMPO 1214/1218 6SM HZ FM122000 28008KT P6SM SCT200 FM130500 30005KT P6SM SCT200 FM131400 31005KT 6SM HZ FEW007 SCT150


KSJC  (20.5 nm NE)   (most recent observation was updatred at 12:11 UTC)
121130Z 1212/1312 14003KT P6SM SKC FM122100 31008KT P6SM SCT200 FM130500 31003KT P6SM SCT200
GlobalAir.com is loading additional information.
 Current Weather at LVK
45.0 F° (7.2 C°)

North winds at 0.0 mph
Pressure:
30.19 in
Humidity:
90%
Wind:
North at 0.0 mph
Dew Point:
42.1 F° (5.6 C°)
Visibility:
4.00 mi
LVK NOAA Radar




Find All Airport Services Find A Hotel Find A Rental Car Find A Golf Course Find A Restaurant $100 Hamburger



Airport Weather Forecast for KLVK

Translated METAR for KLVK (1353 UTC)
METAR:
KLVK 121353Z AUTO 00000KT 5SM BR CLR 07/05 A3020 RMK AO2 SLP225 T00670050
Conditions at:
KLVK (Livermore Muni, CA) observed 1353 UTC 12 February 2016
Temperature:
7°C (44.6°F)
Dewpoint:
5°C (41°F) [RH = 87.1]
Pressure:
30.2 inches Hg (1022.7 mb)
pressure at sea level is 225 in Hg
Winds:
from the N (000 degrees) at 0 mph (0 knots: 0 m/s)
Visibility:
5 mile(s)
Ceiling:
at least 12,000 feet AGL
Clouds:
Clear below 12,000 feet AGL
Remarks:
site is un-manned
site is automated and HAS a precipitation sensor

Translated TAF for KLVK (Livermore Muni, CA) (1133 UTC)
TAF text:
KLVK 121133Z 1212/1312 00000KT 6SM BR SKC
Forecast period:
Friday Feb 12 2016 12:00 UTC - Saturday Feb 13 2016 12:00 UTC
Forecast type:
FROM: standard forecast or significant change
Winds:
from the N (000 degrees) at 0 mph (0 knots: 0 m/s)
Visibility:
6 mile(s) (9.7 km)
Ceiling:
at least 12,000 feet AGL
Clouds:
Clear Skies
Weather:
Moderate Mist
TAF text:
1214/1218 4SM HZ
Forecast period:
Saturday Feb 13 2016 14:00 UTC - Saturday Feb 13 2016 18:00 UTC
Forecast type:
FROM: standard forecast or significant change
Winds:
Visibility:
4 mile(s) (6.4 km)
Ceiling:
Clouds:
Weather:
Moderate Haze
TAF text:
FM122000 33008KT P6SM FEW200
Forecast period:
Friday Feb 12 2016 20:00 UTC - Saturday Feb 13 2016 04:00 UTC
Forecast type:
FROM: standard forecast or significant change
Winds:
from the NNW (330 degrees) at 9.2 mph (8 knots: 4.1 m/s)
Visibility:
6 or more mile(s) (9.7+ km)
Ceiling:
at least 12,000 feet AGL
Clouds:
Few Clouds at 20,000 feet AGL
Weather:
no significant weather observed at this time
TAF text:
FM130400 VRB03KT P6SM SCT200
Forecast period:
Saturday Feb 13 2016 04:00 UTC - Saturday Feb 13 2016 12:00 UTC
Forecast type:
FROM: standard forecast or significant change
Winds:
variable wind direction at 3.5 mph (3 knots: 1.5 m/s)
Visibility:
6 or more mile(s) (9.7+ km)
Ceiling:
at least 12,000 feet AGL
Clouds:
Scattered Clouds at 20,000 feet AGL
Weather:
no significant weather observed at this time
FBO's on the Field
FBO Company Facility Photos Services Transportation Aviation Fuel Prices: Prices include tax
Catering Weather Repair Courtesy Rental Type 100LL JetA JetA+ MOGAS 8087
 
Livermore Municipal Airport

This FBO has not yet been rated
FS:Epic
Last Updated: Feb-08
Login to update fuel prices
SS:
Contact Livermore Municipal AirportMore FBO Information
 
Add another FBO Facility Photos Catering Weather Repair Courtesy Rental Type 100LL JetA JetA+ MOGAS 8087
Services Transportation Aviation Fuel Prices: Prices include tax


model-print
model-print
model-print
model-print